ěÝzenÝ letovÚho provozu ╚eskÚ republiky
Letiste: LKPJ Aktualizace: 12.07.2024 22:30:40  UTC
 METAR LKPJ 12.07. 22:30 ...
METAR LKPJ 122230Z AUTO 27003KT 230V290 CAVOK 19/18 Q1009=